Time;durP1;ratioP1;P1;durP2;ratioP2;P2;SDS_P1;SDS_P2;PMS_P1;PMS_P2;Temp;Humidity;BMP_temperature;BMP_pressure;BME280_temperature;BME280_humidity;BME280_pressure;Samples;Min_cycle;Max_cycle;Signal;HPM_P1;HPM_P2
2023/03/03 00:01:10;;;;;;;82.53;26.37;;;;;;;-145.69;100.00;52575.09;5117714;28;20201;-83
2023/03/03 00:03:36;;;;;;;94.87;28.13;;;;;;;-145.69;100.00;52608.75;5117648;28;20204;-84
2023/03/03 00:06:05;;;;;;;92.80;30.77;;;;;;;-145.69;100.00;52594.91;5117529;28;20193;-83
2023/03/03 00:08:32;;;;;;;92.90;29.03;;;;;;;-145.69;100.00;52571.13;5117650;28;20205;-83
2023/03/03 00:11:02;;;;;;;89.97;29.10;;;;;;;-145.69;100.00;52622.63;5117487;28;20221;-84
2023/03/03 00:13:30;;;;;;;90.47;28.67;;;;;;;-145.69;100.00;52606.78;5117203;28;20189;-84
2023/03/03 00:16:13;;;;;;;91.23;29.57;;;;;;;-145.69;100.00;52606.78;5117427;28;20229;-83
2023/03/03 00:18:43;;;;;;;97.20;30.83;;;;;;;-145.69;100.00;52575.09;5117112;28;20201;-84
2023/03/03 00:21:25;;;;;;;94.27;30.60;;;;;;;-145.69;100.00;52559.25;5117028;28;20693;-84
2023/03/03 00:23:52;;;;;;;87.10;29.57;;;;;;;-145.69;100.00;52602.81;5117071;28;20197;-83
2023/03/03 00:26:23;;;;;;;95.97;29.37;;;;;;;-145.69;100.00;52598.84;5117006;28;20587;-83
2023/03/03 00:28:52;;;;;;;124.17;35.40;;;;;;;-145.69;100.00;52620.66;5116792;28;20197;-83
2023/03/03 00:31:21;;;;;;;97.30;30.77;;;;;;;-145.69;100.00;52602.81;5116902;28;20225;-83
2023/03/03 00:33:53;;;;;;;95.83;30.47;;;;;;;-145.69;100.00;52636.50;5116762;28;20647;-83
2023/03/03 00:36:34;;;;;;;89.73;28.30;;;;;;;-145.69;100.00;52626.59;5117091;28;20294;-84
2023/03/03 00:39:17;;;;;;;88.27;28.43;;;;;;;-145.69;100.00;52571.13;5116939;28;20197;-84
2023/03/03 00:41:45;;;;;;;90.63;29.87;;;;;;;-145.69;100.00;52612.72;5116594;28;20237;-84
2023/03/03 00:44:40;;;;;;;99.77;30.07;;;;;;;-145.69;100.00;52602.81;5116385;28;20202;-84
2023/03/03 00:47:26;;;;;;;86.53;27.63;;;;;;;-145.69;100.00;52586.97;5114209;28;20243;-84
2023/03/03 00:49:53;;;;;;;99.67;29.03;;;;;;;-145.69;100.00;52616.69;5116543;28;20228;-84
2023/03/03 00:52:24;;;;;;;94.13;30.23;;;;;;;-145.69;100.00;52608.75;5116728;28;20208;-84
2023/03/03 00:54:51;;;;;;;92.23;29.30;;;;;;;-145.69;100.00;52590.94;5116185;28;20205;-84
2023/03/03 00:57:19;;;;;;;88.33;29.50;;;;;;;-145.69;100.00;52610.75;5115817;28;20198;-84
2023/03/03 00:59:45;;;;;;;82.00;27.90;;;;;;;-145.69;100.00;52606.78;5099625;28;20220;-84
2023/03/03 01:02:15;;;;;;;93.70;29.60;;;;;;;-145.69;100.00;52598.84;5114461;28;20202;-85
2023/03/03 01:04:43;;;;;;;87.63;28.47;;;;;;;-145.69;100.00;52598.84;5116262;28;20197;-84
2023/03/03 01:07:10;;;;;;;94.90;30.30;;;;;;;-145.69;100.00;52614.72;5116122;28;20671;-84
2023/03/03 01:09:36;;;;;;;86.50;29.20;;;;;;;-145.69;100.00;52590.94;5116463;28;20197;-84
2023/03/03 01:12:03;;;;;;;82.87;26.93;;;;;;;-145.69;100.00;52598.84;5116210;28;20208;-84
2023/03/03 01:14:31;;;;;;;101.17;28.50;;;;;;;-145.69;100.00;52614.72;5116343;28;20246;-84
2023/03/03 01:16:58;;;;;;;96.10;29.63;;;;;;;-145.69;100.00;52604.81;5115896;28;20204;-83
2023/03/03 01:19:24;;;;;;;78.33;28.00;;;;;;;-145.69;100.00;52586.97;5116047;28;20662;-84
2023/03/03 01:21:51;;;;;;;98.90;30.63;;;;;;;-145.69;100.00;52583.00;5116104;28;20682;-83
2023/03/03 01:24:17;;;;;;;91.20;28.33;;;;;;;-145.69;100.00;52600.84;5115901;28;20198;-84
2023/03/03 01:26:44;;;;;;;98.70;30.23;;;;;;;-145.69;100.00;52577.06;5115410;28;20194;-83
2023/03/03 01:29:12;;;;;;;86.63;28.33;;;;;;;-145.69;100.00;52598.84;5115777;28;20285;-83
2023/03/03 01:31:40;;;;;;;80.70;27.07;;;;;;;-145.69;100.00;52586.97;5115564;28;20225;-84
2023/03/03 01:34:07;;;;;;;94.13;30.73;;;;;;;-145.69;100.00;52606.78;5115757;28;20194;-84
2023/03/03 01:36:33;;;;;;;87.00;30.03;;;;;;;-145.69;100.00;52590.94;5114842;28;20197;-84
2023/03/03 01:39:00;;;;;;;86.33;28.80;;;;;;;-145.69;100.00;52586.97;5097100;28;20194;-84
2023/03/03 01:41:28;;;;;;;91.90;28.67;;;;;;;-145.69;100.00;52602.81;5115428;28;20225;-84
2023/03/03 01:43:56;;;;;;;88.17;28.57;;;;;;;-145.69;100.00;52598.84;5115734;28;20658;-83
2023/03/03 01:46:33;;;;;;;95.17;30.87;;;;;;;-145.69;100.00;52585.00;5115431;28;20211;-84
2023/03/03 01:49:10;;;;;;;86.33;28.43;;;;;;;-145.69;100.00;52600.84;5115575;28;20201;-84
2023/03/03 01:51:46;;;;;;;90.40;29.43;;;;;;;-145.69;100.00;52600.84;5115294;28;20224;-84
2023/03/03 01:54:21;;;;;;;83.80;26.87;;;;;;;-145.69;100.00;52577.06;5115122;28;20196;-84
2023/03/03 01:56:49;;;;;;;79.53;27.30;;;;;;;-145.69;100.00;52583.00;5115472;28;20197;-83
2023/03/03 01:59:24;;;;;;;92.03;28.57;;;;;;;-145.69;100.00;52592.91;5115319;28;20201;-84
2023/03/03 02:01:53;;;;;;;84.43;28.10;;;;;;;-145.69;100.00;52606.78;5115183;28;20208;-84
2023/03/03 02:04:21;;;;;;;97.77;29.90;;;;;;;-145.69;100.00;52586.97;5115170;28;20199;-84
2023/03/03 02:06:54;;;;;;;104.47;30.23;;;;;;;-145.69;100.00;52606.78;5114435;28;20250;-83
2023/03/03 02:09:41;;;;;;;80.83;27.77;;;;;;;-145.69;100.00;52606.78;5114851;28;20692;-83
2023/03/03 02:12:11;;;;;;;80.27;27.90;;;;;;;-145.69;100.00;52600.84;5115190;28;20544;-84
2023/03/03 02:14:39;;;;;;;84.43;27.37;;;;;;;-145.69;100.00;52610.75;5114892;28;20205;-84
2023/03/03 02:17:08;;;;;;;97.13;29.50;;;;;;;-145.69;100.00;52594.91;5114627;28;20198;-84
2023/03/03 02:19:47;;;;;;;80.63;26.13;;;;;;;-145.69;100.00;52551.31;5114366;28;20204;-83
2023/03/03 02:22:19;;;;;;;89.73;27.53;;;;;;;-145.69;100.00;52581.03;5114577;28;20686;-84
2023/03/03 02:24:51;;;;;;;78.03;27.57;;;;;;;-145.69;100.00;52610.75;5114999;28;20236;-84
2023/03/03 02:27:20;;;;;;;91.53;30.57;;;;;;;-145.69;100.00;52598.84;5114595;28;20537;-84
2023/03/03 02:29:49;;;;;;;92.73;29.00;;;;;;;-145.69;100.00;52626.59;5114492;28;20198;-84
2023/03/03 02:32:15;;;;;;;84.20;28.33;;;;;;;-145.69;100.00;52590.94;5114787;28;20201;-84
2023/03/03 02:34:46;;;;;;;80.77;27.60;;;;;;;-145.69;100.00;52608.75;5114804;28;20556;-84
2023/03/03 02:37:15;;;;;;;74.33;25.83;;;;;;;-145.69;100.00;52614.72;5114159;28;20193;-83
2023/03/03 02:39:43;;;;;;;77.53;26.63;;;;;;;-145.69;100.00;52618.66;5114614;28;20202;-84
2023/03/03 02:42:16;;;;;;;74.90;25.80;;;;;;;-145.69;100.00;52590.94;5113791;28;20717;-83
2023/03/03 02:44:44;;;;;;;69.43;23.17;;;;;;;-145.69;100.00;52575.09;5114137;28;20214;-83
2023/03/03 02:47:11;;;;;;;83.87;26.13;;;;;;;-145.69;100.00;52583.00;5114262;28;20300;-84
2023/03/03 02:49:44;;;;;;;95.03;28.53;;;;;;;-145.69;100.00;52590.94;5114139;28;20654;-83
2023/03/03 02:52:16;;;;;;;97.57;29.20;;;;;;;-145.69;100.00;52600.84;5113808;28;20715;-84
2023/03/03 02:54:43;;;;;;;94.27;29.67;;;;;;;-145.69;100.00;52626.59;5114211;28;20229;-83
2023/03/03 02:57:09;;;;;;;103.27;32.20;;;;;;;-145.69;100.00;52624.59;5113712;28;20644;-84
2023/03/03 02:59:38;;;;;;;117.57;31.60;;;;;;;-145.69;100.00;52590.94;5114248;28;20201;-84
2023/03/03 03:02:07;;;;;;;109.50;31.03;;;;;;;-145.69;100.00;52604.81;5105237;28;20209;-84
2023/03/03 03:04:34;;;;;;;92.20;28.23;;;;;;;-145.69;100.00;52610.75;5093878;28;20229;-84
2023/03/03 03:07:03;;;;;;;81.93;27.17;;;;;;;-145.69;100.00;52622.63;5114275;28;20208;-83
2023/03/03 03:09:30;;;;;;;82.63;27.10;;;;;;;-145.69;100.00;52622.63;5113745;28;20197;-82
2023/03/03 03:12:01;;;;;;;90.40;28.97;;;;;;;-145.69;100.00;52636.50;5113708;28;20221;-82
2023/03/03 03:14:29;;;;;;;113.90;30.57;;;;;;;-145.69;100.00;52579.06;5113878;28;20644;-82
2023/03/03 03:16:56;;;;;;;106.80;29.40;;;;;;;-145.69;100.00;52590.94;5113560;28;20197;-82
2023/03/03 03:19:35;;;;;;;99.60;28.20;;;;;;;-145.69;100.00;52602.81;5112870;28;20193;-82
2023/03/03 03:22:04;;;;;;;105.63;30.50;;;;;;;-145.69;100.00;52620.66;5113472;28;20220;-82
2023/03/03 03:24:30;;;;;;;110.30;31.10;;;;;;;-145.69;100.00;52583.00;5113714;28;20205;-83
2023/03/03 03:26:57;;;;;;;162.10;48.67;;;;;;;-145.69;100.00;52610.75;5112359;28;20477;-82
2023/03/03 03:29:23;;;;;;;144.20;37.57;;;;;;;-145.69;100.00;52586.97;5113724;28;20201;-83
2023/03/03 03:31:52;;;;;;;126.73;34.00;;;;;;;-145.69;100.00;52579.06;5113176;28;20228;-82
2023/03/03 03:34:21;;;;;;;113.93;30.10;;;;;;;-145.69;100.00;52586.97;5113161;28;20440;-83
2023/03/03 03:36:49;;;;;;;118.00;31.33;;;;;;;-145.69;100.00;52622.63;5113625;28;20571;-83
2023/03/03 03:39:16;;;;;;;105.63;30.20;;;;;;;-145.69;100.00;52598.84;5113718;28;20197;-83
2023/03/03 03:41:44;;;;;;;102.13;29.83;;;;;;;-145.69;100.00;52575.09;5113207;28;20726;-83
2023/03/03 03:44:11;;;;;;;116.73;31.23;;;;;;;-145.69;100.00;52634.50;5113679;28;20651;-83
2023/03/03 03:46:37;;;;;;;109.23;30.67;;;;;;;-145.69;100.00;52586.97;5113487;28;20206;-83
2023/03/03 03:49:04;;;;;;;103.90;29.83;;;;;;;-145.69;100.00;52602.81;5113613;28;20200;-83
2023/03/03 03:51:32;;;;;;;128.43;33.93;;;;;;;-145.69;100.00;52590.94;5113554;28;20217;-83
2023/03/03 03:54:12;;;;;;;100.80;30.90;;;;;;;-145.69;100.00;52577.06;5113566;28;20204;-83
2023/03/03 03:56:39;;;;;;;104.63;31.73;;;;;;;-145.69;100.00;52614.72;5113316;28;20190;-83
2023/03/03 03:59:06;;;;;;;101.50;28.87;;;;;;;-145.69;100.00;52592.91;5113086;28;20190;-83
2023/03/03 04:01:34;;;;;;;95.03;30.07;;;;;;;-145.69;100.00;52588.97;5113152;28;20228;-83
2023/03/03 04:04:01;;;;;;;104.93;30.60;;;;;;;-145.69;100.00;52606.78;5113587;28;20201;-83
2023/03/03 04:06:28;;;;;;;89.80;29.20;;;;;;;-145.69;100.00;52571.13;5113149;28;20197;-82
2023/03/03 04:08:55;;;;;;;103.00;28.67;;;;;;;-145.69;100.00;52563.22;5113364;28;20201;-83
2023/03/03 04:11:26;;;;;;;97.23;29.27;;;;;;;-145.69;100.00;52583.00;5113455;28;20225;-83
2023/03/03 04:13:52;;;;;;;104.23;29.60;;;;;;;-145.69;100.00;52602.81;5113355;28;20292;-82
2023/03/03 04:16:21;;;;;;;98.10;29.03;;;;;;;-145.69;100.00;52590.94;5112948;28;20205;-82
2023/03/03 04:18:48;;;;;;;86.80;26.93;;;;;;;-145.69;100.00;52602.81;5113035;28;20202;-82
2023/03/03 04:21:15;;;;;;;79.37;25.83;;;;;;;-145.69;100.00;52567.16;5113138;28;20197;-83
2023/03/03 04:23:42;;;;;;;114.30;31.20;;;;;;;-145.69;100.00;52622.63;5113081;28;20225;-82
2023/03/03 04:26:09;;;;;;;97.80;29.63;;;;;;;-145.69;100.00;52614.72;5113044;28;20197;-82
2023/03/03 04:28:37;;;;;;;101.17;30.80;;;;;;;-145.69;100.00;52598.84;5112112;28;20197;-83
2023/03/03 04:31:04;;;;;;;103.40;28.50;;;;;;;-145.69;100.00;52577.06;5115621;28;20714;-82
2023/03/03 04:33:30;;;;;;;87.10;27.97;;;;;;;-145.69;100.00;52606.78;5116597;28;20229;-82
2023/03/03 04:35:57;;;;;;;90.23;27.37;;;;;;;-145.69;100.00;52598.84;5116259;28;20209;-82
2023/03/03 04:38:25;;;;;;;87.07;28.37;;;;;;;-145.69;100.00;52652.34;5116350;28;20302;-83
2023/03/03 04:40:51;;;;;;;81.07;26.77;;;;;;;-145.69;100.00;52614.72;5116321;28;20229;-82
2023/03/03 04:43:18;;;;;;;83.20;25.90;;;;;;;-145.69;100.00;52586.97;5116274;28;20301;-82
2023/03/03 04:45:45;;;;;;;106.27;30.17;;;;;;;-145.69;100.00;52618.66;5116335;28;20201;-82
2023/03/03 04:48:12;;;;;;;115.80;33.50;;;;;;;-145.69;100.00;52622.63;5097937;28;20194;-83
2023/03/03 04:50:41;;;;;;;89.70;29.60;;;;;;;-145.69;100.00;52604.81;5116423;28;20198;-83
2023/03/03 04:53:08;;;;;;;91.97;28.57;;;;;;;-145.69;100.00;52606.78;5116235;28;20224;-83
2023/03/03 04:55:36;;;;;;;90.23;29.47;;;;;;;-145.69;100.00;52638.47;5094690;28;20375;-83
2023/03/03 04:58:03;;;;;;;89.47;29.33;;;;;;;-145.69;100.00;52610.75;5110945;28;20635;-84
2023/03/03 05:00:30;;;;;;;83.70;28.13;;;;;;;-145.69;100.00;52612.72;5116532;28;20201;-83
2023/03/03 05:02:58;;;;;;;102.00;31.67;;;;;;;-145.69;100.00;52630.53;5115791;28;20210;-84
2023/03/03 05:05:24;;;;;;;100.77;30.67;;;;;;;-145.69;100.00;52567.16;5115741;28;20200;-84
2023/03/03 05:07:51;;;;;;;95.23;29.73;;;;;;;-145.69;100.00;52616.69;5115712;28;20589;-84
2023/03/03 05:10:18;;;;;;;82.67;28.33;;;;;;;-145.69;100.00;52606.78;5115993;28;20204;-84
2023/03/03 05:12:44;;;;;;;81.20;27.27;;;;;;;-145.69;100.00;52579.06;5115773;28;20687;-83
2023/03/03 05:15:11;;;;;;;84.17;26.97;;;;;;;-145.69;100.00;52612.72;5115874;28;20214;-83
2023/03/03 05:17:37;;;;;;;98.47;29.27;;;;;;;-145.69;100.00;52557.28;5116073;28;20202;-83
2023/03/03 05:20:09;;;;;;;83.30;29.47;;;;;;;-145.69;100.00;52583.00;5115755;28;20296;-83
2023/03/03 05:22:35;;;;;;;89.87;27.50;;;;;;;-145.69;100.00;52590.94;5115316;28;20678;-83
2023/03/03 05:25:02;;;;;;;89.10;29.00;;;;;;;-145.69;100.00;52585.00;5115588;28;20197;-84
2023/03/03 05:27:29;;;;;;;89.70;27.73;;;;;;;-145.69;100.00;52614.72;5115302;28;20564;-84
2023/03/03 05:29:55;;;;;;;90.80;29.10;;;;;;;-145.69;100.00;52616.69;5115223;28;20194;-84
2023/03/03 05:32:22;;;;;;;83.67;28.23;;;;;;;-145.69;100.00;52602.81;5115597;28;20229;-83
2023/03/03 05:34:49;;;;;;;88.37;27.43;;;;;;;-145.69;100.00;52588.97;5115559;28;20289;-84
2023/03/03 05:37:17;;;;;;;97.67;29.87;;;;;;;-145.69;100.00;52624.59;5109671;28;20193;-83
2023/03/03 05:39:44;;;;;;;93.07;28.13;;;;;;;-145.69;100.00;52614.72;5115484;28;20208;-81
2023/03/03 05:42:12;;;;;;;85.10;28.67;;;;;;;-145.69;100.00;52598.84;5114509;28;20258;-84
2023/03/03 05:44:38;;;;;;;73.97;24.77;;;;;;;-145.69;100.00;52598.84;5115573;28;20198;-83
2023/03/03 05:47:05;;;;;;;75.63;23.90;;;;;;;-145.69;100.00;52616.69;5115332;28;20204;-84
2023/03/03 05:49:31;;;;;;;74.70;26.37;;;;;;;-145.69;100.00;52610.75;5115601;28;20283;-84
2023/03/03 05:51:58;;;;;;;84.30;28.57;;;;;;;-145.69;100.00;52630.53;5114499;28;20329;-83
2023/03/03 05:54:26;;;;;;;88.43;27.60;;;;;;;-145.69;100.00;52608.75;5115219;28;20259;-84
2023/03/03 05:56:52;;;;;;;105.73;30.37;;;;;;;-145.69;100.00;52618.66;5114884;28;20208;-83
2023/03/03 05:59:19;;;;;;;99.33;29.80;;;;;;;-145.69;100.00;52630.53;5115203;28;20194;-83
2023/03/03 06:01:46;;;;;;;95.03;30.50;;;;;;;-145.69;100.00;52618.66;5115076;28;20201;-84
2023/03/03 06:04:12;;;;;;;99.20;30.23;;;;;;;-145.69;100.00;52618.66;5115527;28;20197;-83
2023/03/03 06:06:39;;;;;;;94.33;29.37;;;;;;;-145.69;100.00;52602.81;5115166;28;20204;-83
2023/03/03 06:09:06;;;;;;;78.63;27.03;;;;;;;-145.69;100.00;52610.75;5114434;28;20203;-84
2023/03/03 06:11:34;;;;;;;80.73;27.93;;;;;;;-145.69;100.00;52594.91;5114677;28;20713;-84
2023/03/03 06:14:01;;;;;;;92.27;29.77;;;;;;;-145.69;100.00;52598.84;5114607;28;20207;-83
2023/03/03 06:16:27;;;;;;;76.17;27.33;;;;;;;-145.69;100.00;52618.66;5114299;28;20564;-84
2023/03/03 06:18:54;;;;;;;89.93;28.73;;;;;;;-145.69;100.00;52579.06;5114414;28;20201;-83
2023/03/03 06:21:20;;;;;;;86.90;28.83;;;;;;;-145.69;100.00;52575.09;5114874;28;20193;-84
2023/03/03 06:23:47;;;;;;;81.30;26.77;;;;;;;-145.69;100.00;52596.88;5114276;28;20198;-84
2023/03/03 06:26:14;;;;;;;95.77;31.67;;;;;;;-145.69;100.00;52575.09;5114217;28;20343;-84
2023/03/03 06:28:42;;;;;;;80.53;27.60;;;;;;;-145.69;100.00;52590.94;5114449;28;20208;-83
2023/03/03 06:31:08;;;;;;;74.80;25.83;;;;;;;-145.69;100.00;52598.84;5114179;28;20210;-83
2023/03/03 06:33:35;;;;;;;71.80;26.17;;;;;;;-145.69;100.00;52610.75;5114130;28;20193;-82
2023/03/03 06:36:01;;;;;;;75.43;24.80;;;;;;;-145.69;100.00;52634.50;5114068;28;20648;-83
2023/03/03 06:38:28;;;;;;;68.87;24.40;;;;;;;-145.69;100.00;52604.81;5114308;28;20738;-83
2023/03/03 06:40:54;;;;;;;76.23;26.53;;;;;;;-145.69;100.00;52585.00;5113823;28;20229;-83
2023/03/03 06:43:21;;;;;;;88.17;28.50;;;;;;;-145.69;100.00;52604.81;5114003;28;20235;-82
2023/03/03 06:45:49;;;;;;;78.07;27.13;;;;;;;-145.69;100.00;52604.81;5113828;28;20198;-83
2023/03/03 06:48:15;;;;;;;91.33;29.20;;;;;;;-145.69;100.00;52608.75;5113811;28;20197;-83
2023/03/03 06:50:42;;;;;;;78.33;28.10;;;;;;;-145.69;100.00;52628.56;5100760;28;20205;-82
2023/03/03 06:53:12;;;;;;;83.03;27.70;;;;;;;-145.69;100.00;52608.75;5093309;28;20228;-83
2023/03/03 06:55:39;;;;;;;74.07;26.63;;;;;;;-145.69;100.00;52590.94;5093595;28;20209;-83
2023/03/03 06:58:13;;;;;;;74.40;27.30;;;;;;;-145.69;100.00;52598.84;5093451;28;20195;-84
2023/03/03 07:00:42;;;;;;;84.37;30.00;;;;;;;-145.69;100.00;52610.75;5106154;28;20597;-83
2023/03/03 07:03:15;;;;;;;77.83;30.07;;;;;;;-145.69;100.00;52569.16;5114383;28;20214;-84
2023/03/03 07:05:42;;;;;;;75.67;27.83;;;;;;;-145.69;100.00;52596.88;5113710;28;20205;-84
2023/03/03 07:08:14;;;;;;;77.90;26.97;;;;;;;-145.69;100.00;52592.91;5114328;28;20313;-84
2023/03/03 07:10:41;;;;;;;86.93;29.33;;;;;;;-145.69;100.00;52606.78;5114334;28;20193;-83
2023/03/03 07:13:18;;;;;;;84.67;29.63;;;;;;;-145.69;100.00;52579.06;5114248;28;20225;-84
2023/03/03 07:15:44;;;;;;;83.63;30.37;;;;;;;-145.69;100.00;52608.75;5115374;28;20212;-84
2023/03/03 07:18:31;;;;;;;88.23;31.60;;;;;;;-145.69;100.00;52588.97;5115711;28;20193;-83
2023/03/03 07:21:12;;;;;;;76.57;27.73;;;;;;;-145.69;100.00;52590.94;5114054;28;20208;-83
2023/03/03 07:23:41;;;;;;;66.97;26.27;;;;;;;-145.69;100.00;52539.44;5097120;28;20200;-84
2023/03/03 07:26:08;;;;;;;82.57;29.90;;;;;;;-145.69;100.00;52575.09;5113589;28;20735;-84
2023/03/03 07:28:35;;;;;;;94.00;32.90;;;;;;;-145.69;100.00;52610.75;5113822;28;20216;-84
2023/03/03 07:31:01;;;;;;;79.03;30.37;;;;;;;-145.69;100.00;52575.09;5113884;28;20659;-84
2023/03/03 07:33:35;;;;;;;90.57;31.30;;;;;;;-145.69;100.00;52573.13;5113406;28;20225;-84
2023/03/03 07:36:04;;;;;;;79.60;27.93;;;;;;;-145.69;100.00;52598.84;5113866;28;20193;-84
2023/03/03 07:38:35;;;;;;;84.20;29.53;;;;;;;-145.69;100.00;52577.06;5113561;28;20292;-83
2023/03/03 07:41:03;;;;;;;82.20;30.97;;;;;;;-145.69;100.00;52573.13;5113070;28;20236;-83
2023/03/03 07:43:34;;;;;;;71.07;27.77;;;;;;;-145.69;100.00;52583.00;5113249;28;20205;-83
2023/03/03 07:46:14;;;;;;;73.17;26.70;;;;;;;-145.69;100.00;52565.19;5113264;28;20655;-83
2023/03/03 07:48:43;;;;;;;74.93;28.80;;;;;;;-145.69;100.00;52604.81;5112826;28;20196;-83
2023/03/03 07:51:16;;;;;;;81.10;29.13;;;;;;;-145.69;100.00;52571.13;5113478;28;20635;-83
2023/03/03 07:53:42;;;;;;;75.03;28.43;;;;;;;-145.69;100.00;52592.91;5113066;28;20233;-84
2023/03/03 07:56:20;;;;;;;76.87;27.70;;;;;;;-145.69;100.00;52579.06;5113319;28;20201;-84
2023/03/03 07:58:47;;;;;;;76.00;27.23;;;;;;;-145.69;100.00;52590.94;5113176;28;20204;-83
2023/03/03 08:01:36;;;;;;;67.50;27.60;;;;;;;-145.69;100.00;52569.16;5113066;28;20676;-83
2023/03/03 08:04:16;;;;;;;70.17;26.07;;;;;;;-145.69;100.00;52594.91;5113150;28;20655;-83
2023/03/03 08:06:48;;;;;;;65.13;26.43;;;;;;;-145.69;100.00;52571.13;5116450;28;20194;-83
2023/03/03 08:09:36;;;;;;;63.63;26.33;;;;;;;-145.69;100.00;52586.97;5115696;28;20678;-83
2023/03/03 08:12:31;;;;;;;101.10;35.17;;;;;;;-145.69;100.00;52559.25;5110200;28;20221;-84
2023/03/03 08:15:14;;;;;;;77.73;29.43;;;;;;;-145.69;100.00;52614.72;5116884;28;20605;-84
2023/03/03 08:17:44;;;;;;;73.20;27.90;;;;;;;-145.69;100.00;52555.28;5116675;28;20212;-83
2023/03/03 08:20:40;;;;;;;80.50;30.07;;;;;;;-145.69;100.00;52600.84;5117042;28;20220;-83
2023/03/03 08:23:08;;;;;;;80.87;31.23;;;;;;;-145.69;100.00;52559.25;5114103;28;20208;-83
2023/03/03 08:25:34;;;;;;;84.77;29.87;;;;;;;-145.69;100.00;52571.13;5116598;28;20197;-83
2023/03/03 08:28:01;;;;;;;75.43;26.83;;;;;;;-145.69;100.00;52563.22;5116836;28;20207;-83
2023/03/03 08:30:27;;;;;;;63.60;26.80;;;;;;;-145.69;100.00;52579.06;5116540;28;20202;-83
2023/03/03 08:32:54;;;;;;;70.67;26.87;;;;;;;-145.69;100.00;52547.38;5116684;28;20229;-84
2023/03/03 08:35:20;;;;;;;73.17;26.97;;;;;;;-145.69;100.00;52569.16;5115879;28;20194;-83
2023/03/03 08:37:47;;;;;;;66.17;27.30;;;;;;;-145.69;100.00;52565.19;5116510;28;20210;-84
2023/03/03 08:40:15;;;;;;;72.10;25.67;;;;;;;-145.69;100.00;52585.00;5116248;28;20560;-83
2023/03/03 08:42:42;;;;;;;65.60;25.57;;;;;;;-145.69;100.00;52559.25;5116552;28;20571;-83
2023/03/03 08:45:08;;;;;;;64.87;26.30;;;;;;;-145.69;100.00;52583.00;5116669;28;20201;-84
2023/03/03 08:47:35;;;;;;;66.63;26.67;;;;;;;-145.69;100.00;52539.44;5116568;28;20202;-83
2023/03/03 08:50:02;;;;;;;63.77;26.53;;;;;;;-145.69;100.00;52590.94;5116395;28;20208;-84
2023/03/03 08:52:28;;;;;;;76.10;27.87;;;;;;;-145.69;100.00;52579.06;5100769;28;20264;-84
2023/03/03 08:54:55;;;;;;;66.07;26.27;;;;;;;-145.69;100.00;52559.25;5096843;28;20202;-85
2023/03/03 08:57:22;;;;;;;68.93;26.83;;;;;;;-145.69;100.00;52586.97;5098685;28;20205;-83
2023/03/03 08:59:49;;;;;;;64.70;25.53;;;;;;;-145.69;100.00;52571.13;5099238;28;20198;-83
2023/03/03 09:02:16;;;;;;;65.77;27.07;;;;;;;-145.69;100.00;52583.00;5096745;28;20213;-84
2023/03/03 09:04:42;;;;;;;63.13;23.93;;;;;;;-145.69;100.00;52527.56;5098479;28;20293;-83
2023/03/03 09:07:09;;;;;;;62.50;25.60;;;;;;;-145.69;100.00;52567.16;5115814;28;20209;-85
2023/03/03 09:09:36;;;;;;;61.57;26.30;;;;;;;-145.69;100.00;52523.59;5116243;28;20636;-83
2023/03/03 09:12:14;;;;;;;63.10;26.03;;;;;;;-145.69;100.00;52527.56;5116014;28;20197;-83
2023/03/03 09:14:42;;;;;;;63.83;26.33;;;;;;;-145.69;100.00;52551.31;5116375;28;20200;-85
2023/03/03 09:17:24;;;;;;;60.10;24.27;;;;;;;-145.69;100.00;52567.16;5115302;28;20205;-83
2023/03/03 09:19:50;;;;;;;58.80;24.13;;;;;;;-145.69;100.00;52537.47;5115890;28;20205;-83
2023/03/03 09:22:20;;;;;;;66.77;25.60;;;;;;;-145.69;100.00;52547.38;5116209;28;20197;-84
2023/03/03 09:24:48;;;;;;;60.50;22.97;;;;;;;-145.69;100.00;52523.59;5112081;28;20647;-84
2023/03/03 09:27:19;;;;;;;56.57;24.30;;;;;;;-145.69;100.00;52535.47;5095345;28;20721;-84
2023/03/03 09:29:47;;;;;;;65.47;24.50;;;;;;;-145.69;100.00;52531.53;5114261;27;20193;-84
2023/03/03 09:32:33;;;;;;;62.97;25.17;;;;;;;-145.69;100.00;52543.41;5136491;27;20200;-83
2023/03/03 09:35:00;;;;;;;61.50;24.33;;;;;;;-145.69;100.00;52513.69;5123563;27;20284;-83
2023/03/03 09:37:31;;;;;;;60.03;24.50;;;;;;;-145.69;100.00;52517.66;5114661;28;20197;-82
2023/03/03 09:39:58;;;;;;;49.60;22.70;;;;;;;-145.69;100.00;52553.31;5115321;28;20250;-80
2023/03/03 09:42:47;;;;;;;50.50;22.17;;;;;;;-145.69;100.00;52519.63;5115684;28;20653;-82
2023/03/03 09:46:00;;;;;;;59.87;22.80;;;;;;;-145.69;100.00;52523.59;5110759;28;20201;-81
2023/03/03 09:48:38;;;;;;;61.07;24.90;;;;;;;-145.69;100.00;52547.38;5101202;28;20193;-82
2023/03/03 09:51:17;;;;;;;64.30;24.77;;;;;;;-145.69;100.00;52610.75;5127952;27;20205;-83
2023/03/03 09:54:02;;;;;;;57.97;24.67;;;;;;;-145.69;100.00;52541.44;5135284;27;20232;-83
2023/03/03 09:56:33;;;;;;;58.30;23.40;;;;;;;-145.69;100.00;52543.41;5135458;27;20193;-83
2023/03/03 09:59:14;;;;;;;63.07;24.57;;;;;;;-145.69;100.00;52527.56;5135404;27;20207;-83
2023/03/03 10:01:56;;;;;;;55.77;23.77;;;;;;;-145.69;100.00;52507.75;5105174;28;20189;-83
2023/03/03 10:04:43;;;;;;;59.90;23.57;;;;;;;-145.69;100.00;52531.53;5114727;28;20200;-83
2023/03/03 10:07:24;;;;;;;50.97;21.87;;;;;;;-145.69;99.55;52527.56;5114375;28;20284;-84
2023/03/03 10:10:10;;;;;;;54.67;22.93;;;;;;;-145.69;100.00;52545.38;5114476;28;20197;-83
2023/03/03 10:12:48;;;;;;;52.73;21.63;;;;;;;-145.69;99.05;52519.63;5114726;28;20223;-84
2023/03/03 10:15:27;;;;;;;57.67;24.33;;;;;;;-145.69;100.00;52487.97;5114541;27;20197;-84
2023/03/03 10:18:03;;;;;;;54.80;23.60;;;;;;;-145.69;100.00;52559.25;5094132;28;20289;-84
2023/03/03 10:20:38;;;;;;;60.97;25.13;;;;;;;-145.69;100.00;52561.22;5105284;28;20197;-82
2023/03/03 10:23:20;;;;;;;58.43;22.87;;;;;;;-145.69;100.00;52519.63;5114210;28;20663;-83
2023/03/03 10:25:53;;;;;;;52.13;22.87;;;;;;;-145.69;100.00;52523.59;5114098;27;20618;-83
2023/03/03 10:28:35;;;;;;;49.80;22.53;;;;;;;-145.69;96.70;52543.41;5116446;28;20682;-83
2023/03/03 10:31:15;;;;;;;58.67;23.20;;;;;;;-145.69;99.26;52519.63;5115491;28;20197;-83
2023/03/03 10:33:49;;;;;;;46.60;20.80;;;;;;;-145.69;96.84;52511.72;5104018;28;20221;-83
2023/03/03 10:36:33;;;;;;;62.27;24.50;;;;;;;-145.69;100.00;52543.41;5114725;28;20663;-82
2023/03/03 10:39:16;;;;;;;53.57;22.77;;;;;;;-145.69;98.55;52563.22;5113596;28;20193;-82
2023/03/03 10:41:55;;;;;;;55.67;22.63;;;;;;;-145.69;97.29;52537.47;5115019;28;20583;-83
2023/03/03 10:44:32;;;;;;;59.07;23.90;;;;;;;-145.69;99.29;52543.41;5113263;28;20648;-82
2023/03/03 10:47:20;;;;;;;55.23;22.57;;;;;;;-145.69;100.00;52539.44;5116127;28;20194;-83
2023/03/03 10:50:01;;;;;;;55.93;23.77;;;;;;;-145.69;100.00;52537.47;5113947;28;20192;-82
2023/03/03 10:52:37;;;;;;;56.53;22.53;;;;;;;-145.69;98.89;52523.59;5100522;28;20233;-79
2023/03/03 10:55:18;;;;;;;54.87;23.93;;;;;;;-145.69;94.63;52527.56;5099335;28;20185;-80
2023/03/03 10:57:53;;;;;;;57.90;22.23;;;;;;;-145.69;95.91;52517.66;5113668;28;20208;-80
2023/03/03 11:00:24;;;;;;;62.63;24.07;;;;;;;-145.69;96.81;52511.72;5093472;28;20197;-80
2023/03/03 11:03:33;;;;;;;50.10;22.10;;;;;;;-145.69;88.69;52523.59;5109441;28;20194;-80
2023/03/03 11:06:05;;;;;;;46.73;21.10;;;;;;;-145.69;93.55;52489.94;5083346;28;20193;-79
2023/03/03 11:08:38;;;;;;;52.63;22.60;;;;;;;-145.69;79.45;52491.91;5113487;28;20201;-81
2023/03/03 11:11:12;;;;;;;51.53;21.50;;;;;;;-145.69;79.90;52511.72;5113856;28;20201;-78